sensor_id;sensor_type;location;lat;lon;timestamp;P1;durP1;ratioP1;P2;durP2;ratioP2
39750;SDS011;37579;51.074;17.004;2024-03-02T00:02:12;11.25;;;7.43;;
39750;SDS011;37579;51.074;17.004;2024-03-02T00:04:39;10.35;;;8.05;;
39750;SDS011;37579;51.074;17.004;2024-03-02T00:07:06;13.20;;;8.23;;
39750;SDS011;37579;51.074;17.004;2024-03-02T00:09:32;11.38;;;7.35;;
39750;SDS011;37579;51.074;17.004;2024-03-02T00:11:59;11.30;;;7.47;;
39750;SDS011;37579;51.074;17.004;2024-03-02T00:14:28;10.63;;;7.53;;
39750;SDS011;37579;51.074;17.004;2024-03-02T00:16:55;10.35;;;6.68;;
39750;SDS011;37579;51.074;17.004;2024-03-02T00:19:21;12.30;;;7.60;;
39750;SDS011;37579;51.074;17.004;2024-03-02T00:21:47;11.63;;;7.65;;
39750;SDS011;37579;51.074;17.004;2024-03-02T00:24:32;10.90;;;8.00;;
39750;SDS011;37579;51.074;17.004;2024-03-02T00:27:00;9.48;;;7.18;;
39750;SDS011;37579;51.074;17.004;2024-03-02T00:29:28;11.55;;;7.05;;
39750;SDS011;37579;51.074;17.004;2024-03-02T00:31:55;9.85;;;7.50;;
39750;SDS011;37579;51.074;17.004;2024-03-02T00:34:21;13.15;;;8.13;;
39750;SDS011;37579;51.074;17.004;2024-03-02T00:36:47;13.10;;;7.93;;
39750;SDS011;37579;51.074;17.004;2024-03-02T00:39:15;13.02;;;7.28;;
39750;SDS011;37579;51.074;17.004;2024-03-02T00:41:42;10.90;;;7.45;;
39750;SDS011;37579;51.074;17.004;2024-03-02T00:44:09;9.48;;;7.32;;
39750;SDS011;37579;51.074;17.004;2024-03-02T00:46:40;8.90;;;6.82;;
39750;SDS011;37579;51.074;17.004;2024-03-02T00:51:46;10.20;;;7.85;;
39750;SDS011;37579;51.074;17.004;2024-03-02T00:54:18;12.25;;;7.82;;
39750;SDS011;37579;51.074;17.004;2024-03-02T00:56:46;10.95;;;7.63;;
39750;SDS011;37579;51.074;17.004;2024-03-02T00:59:13;12.63;;;8.23;;
39750;SDS011;37579;51.074;17.004;2024-03-02T01:01:38;9.90;;;7.72;;
39750;SDS011;37579;51.074;17.004;2024-03-02T01:04:04;12.15;;;8.13;;
39750;SDS011;37579;51.074;17.004;2024-03-02T01:06:30;10.10;;;7.57;;
39750;SDS011;37579;51.074;17.004;2024-03-02T01:08:56;10.15;;;7.28;;
39750;SDS011;37579;51.074;17.004;2024-03-02T01:11:22;9.93;;;7.20;;
39750;SDS011;37579;51.074;17.004;2024-03-02T01:13:48;10.85;;;7.68;;
39750;SDS011;37579;51.074;17.004;2024-03-02T01:16:14;10.82;;;8.05;;
39750;SDS011;37579;51.074;17.004;2024-03-02T01:18:41;11.40;;;7.43;;
39750;SDS011;37579;51.074;17.004;2024-03-02T01:21:07;11.02;;;8.23;;
39750;SDS011;37579;51.074;17.004;2024-03-02T01:23:33;11.77;;;7.38;;
39750;SDS011;37579;51.074;17.004;2024-03-02T01:25:59;10.77;;;7.80;;
39750;SDS011;37579;51.074;17.004;2024-03-02T01:28:25;10.35;;;8.40;;
39750;SDS011;37579;51.074;17.004;2024-03-02T01:30:51;10.90;;;7.93;;
39750;SDS011;37579;51.074;17.004;2024-03-02T01:33:17;8.98;;;7.38;;
39750;SDS011;37579;51.074;17.004;2024-03-02T01:35:43;11.48;;;7.80;;
39750;SDS011;37579;51.074;17.004;2024-03-02T01:38:09;12.90;;;8.02;;
39750;SDS011;37579;51.074;17.004;2024-03-02T01:40:35;12.30;;;8.05;;
39750;SDS011;37579;51.074;17.004;2024-03-02T01:43:02;11.27;;;7.72;;
39750;SDS011;37579;51.074;17.004;2024-03-02T01:45:29;10.90;;;7.18;;
39750;SDS011;37579;51.074;17.004;2024-03-02T01:47:55;10.02;;;8.05;;
39750;SDS011;37579;51.074;17.004;2024-03-02T01:50:27;10.18;;;7.28;;
39750;SDS011;37579;51.074;17.004;2024-03-02T01:52:57;10.88;;;7.95;;
39750;SDS011;37579;51.074;17.004;2024-03-02T01:55:24;10.52;;;7.43;;
39750;SDS011;37579;51.074;17.004;2024-03-02T01:57:50;10.00;;;7.32;;
39750;SDS011;37579;51.074;17.004;2024-03-02T02:00:17;9.20;;;6.88;;
39750;SDS011;37579;51.074;17.004;2024-03-02T02:02:44;9.77;;;7.55;;
39750;SDS011;37579;51.074;17.004;2024-03-02T02:05:10;10.55;;;7.68;;
39750;SDS011;37579;51.074;17.004;2024-03-02T02:07:36;10.00;;;7.93;;
39750;SDS011;37579;51.074;17.004;2024-03-02T02:10:02;11.63;;;7.97;;
39750;SDS011;37579;51.074;17.004;2024-03-02T02:12:28;9.98;;;7.97;;
39750;SDS011;37579;51.074;17.004;2024-03-02T02:14:54;11.27;;;7.60;;
39750;SDS011;37579;51.074;17.004;2024-03-02T02:17:20;10.80;;;7.93;;
39750;SDS011;37579;51.074;17.004;2024-03-02T02:19:46;10.55;;;8.07;;
39750;SDS011;37579;51.074;17.004;2024-03-02T02:22:11;9.35;;;7.50;;
39750;SDS011;37579;51.074;17.004;2024-03-02T02:24:40;10.52;;;7.70;;
39750;SDS011;37579;51.074;17.004;2024-03-02T02:27:07;10.02;;;7.70;;
39750;SDS011;37579;51.074;17.004;2024-03-02T02:29:36;10.13;;;7.70;;
39750;SDS011;37579;51.074;17.004;2024-03-02T02:32:02;10.15;;;7.85;;
39750;SDS011;37579;51.074;17.004;2024-03-02T02:34:28;10.13;;;7.60;;
39750;SDS011;37579;51.074;17.004;2024-03-02T02:36:54;9.70;;;8.20;;
39750;SDS011;37579;51.074;17.004;2024-03-02T02:39:21;11.57;;;8.77;;
39750;SDS011;37579;51.074;17.004;2024-03-02T02:41:50;9.68;;;7.45;;
39750;SDS011;37579;51.074;17.004;2024-03-02T02:44:16;9.75;;;7.45;;
39750;SDS011;37579;51.074;17.004;2024-03-02T02:46:42;10.02;;;8.05;;
39750;SDS011;37579;51.074;17.004;2024-03-02T02:49:07;8.95;;;7.15;;
39750;SDS011;37579;51.074;17.004;2024-03-02T02:51:33;9.75;;;7.70;;
39750;SDS011;37579;51.074;17.004;2024-03-02T02:53:59;10.60;;;7.38;;
39750;SDS011;37579;51.074;17.004;2024-03-02T02:56:25;11.40;;;8.60;;
39750;SDS011;37579;51.074;17.004;2024-03-02T02:58:50;9.32;;;7.38;;
39750;SDS011;37579;51.074;17.004;2024-03-02T03:01:16;10.65;;;8.05;;
39750;SDS011;37579;51.074;17.004;2024-03-02T03:03:43;10.65;;;7.88;;
39750;SDS011;37579;51.074;17.004;2024-03-02T03:06:10;9.73;;;7.30;;
39750;SDS011;37579;51.074;17.004;2024-03-02T03:08:36;10.02;;;7.90;;
39750;SDS011;37579;51.074;17.004;2024-03-02T03:11:02;9.50;;;7.72;;
39750;SDS011;37579;51.074;17.004;2024-03-02T03:13:28;9.85;;;7.72;;
39750;SDS011;37579;51.074;17.004;2024-03-02T03:15:54;9.25;;;7.38;;
39750;SDS011;37579;51.074;17.004;2024-03-02T03:18:19;9.38;;;7.13;;
39750;SDS011;37579;51.074;17.004;2024-03-02T03:20:45;8.55;;;7.65;;
39750;SDS011;37579;51.074;17.004;2024-03-02T03:23:11;10.70;;;7.32;;
39750;SDS011;37579;51.074;17.004;2024-03-02T03:25:40;9.45;;;7.57;;
39750;SDS011;37579;51.074;17.004;2024-03-02T03:28:09;9.73;;;7.68;;
39750;SDS011;37579;51.074;17.004;2024-03-02T03:30:38;10.75;;;8.18;;
39750;SDS011;37579;51.074;17.004;2024-03-02T03:33:04;11.35;;;7.93;;
39750;SDS011;37579;51.074;17.004;2024-03-02T03:35:33;11.15;;;8.07;;
39750;SDS011;37579;51.074;17.004;2024-03-02T03:38:00;10.93;;;7.78;;
39750;SDS011;37579;51.074;17.004;2024-03-02T03:40:26;10.27;;;7.95;;
39750;SDS011;37579;51.074;17.004;2024-03-02T03:42:51;9.98;;;7.70;;
39750;SDS011;37579;51.074;17.004;2024-03-02T03:45:18;11.27;;;8.15;;
39750;SDS011;37579;51.074;17.004;2024-03-02T03:47:44;9.40;;;7.60;;
39750;SDS011;37579;51.074;17.004;2024-03-02T03:50:10;9.52;;;7.72;;
39750;SDS011;37579;51.074;17.004;2024-03-02T03:52:36;10.35;;;7.65;;
39750;SDS011;37579;51.074;17.004;2024-03-02T03:55:01;9.75;;;7.82;;
39750;SDS011;37579;51.074;17.004;2024-03-02T03:57:27;9.90;;;8.07;;
39750;SDS011;37579;51.074;17.004;2024-03-02T03:59:53;9.88;;;7.65;;
39750;SDS011;37579;51.074;17.004;2024-03-02T04:02:19;9.85;;;7.53;;
39750;SDS011;37579;51.074;17.004;2024-03-02T04:04:45;10.48;;;7.40;;
39750;SDS011;37579;51.074;17.004;2024-03-02T04:07:11;9.52;;;7.60;;
39750;SDS011;37579;51.074;17.004;2024-03-02T04:09:37;10.07;;;7.60;;
39750;SDS011;37579;51.074;17.004;2024-03-02T04:12:02;9.57;;;7.70;;
39750;SDS011;37579;51.074;17.004;2024-03-02T04:14:28;11.82;;;8.65;;
39750;SDS011;37579;51.074;17.004;2024-03-02T04:16:54;10.32;;;7.85;;
39750;SDS011;37579;51.074;17.004;2024-03-02T04:19:20;11.07;;;8.10;;
39750;SDS011;37579;51.074;17.004;2024-03-02T04:21:46;9.65;;;7.30;;
39750;SDS011;37579;51.074;17.004;2024-03-02T04:24:12;9.38;;;7.70;;
39750;SDS011;37579;51.074;17.004;2024-03-02T04:26:38;9.20;;;7.45;;
39750;SDS011;37579;51.074;17.004;2024-03-02T04:29:03;10.05;;;7.75;;
39750;SDS011;37579;51.074;17.004;2024-03-02T04:31:29;9.65;;;8.07;;
39750;SDS011;37579;51.074;17.004;2024-03-02T04:33:55;9.60;;;7.30;;
39750;SDS011;37579;51.074;17.004;2024-03-02T04:36:20;8.80;;;7.88;;
39750;SDS011;37579;51.074;17.004;2024-03-02T04:38:46;9.98;;;7.55;;
39750;SDS011;37579;51.074;17.004;2024-03-02T04:41:13;10.18;;;7.65;;
39750;SDS011;37579;51.074;17.004;2024-03-02T04:43:38;10.30;;;7.63;;
39750;SDS011;37579;51.074;17.004;2024-03-02T04:46:05;9.95;;;7.50;;
39750;SDS011;37579;51.074;17.004;2024-03-02T04:48:32;9.85;;;7.95;;
39750;SDS011;37579;51.074;17.004;2024-03-02T04:50:57;9.50;;;7.65;;
39750;SDS011;37579;51.074;17.004;2024-03-02T04:53:23;8.95;;;7.47;;
39750;SDS011;37579;51.074;17.004;2024-03-02T04:55:49;9.40;;;7.72;;
39750;SDS011;37579;51.074;17.004;2024-03-02T04:58:21;10.80;;;8.05;;
39750;SDS011;37579;51.074;17.004;2024-03-02T05:00:46;9.68;;;7.47;;
39750;SDS011;37579;51.074;17.004;2024-03-02T05:03:12;9.85;;;7.78;;
39750;SDS011;37579;51.074;17.004;2024-03-02T05:05:38;9.23;;;7.50;;
39750;SDS011;37579;51.074;17.004;2024-03-02T05:08:04;9.70;;;7.75;;
39750;SDS011;37579;51.074;17.004;2024-03-02T05:10:30;9.63;;;7.30;;
39750;SDS011;37579;51.074;17.004;2024-03-02T05:12:56;9.13;;;7.78;;
39750;SDS011;37579;51.074;17.004;2024-03-02T05:15:22;9.63;;;7.32;;
39750;SDS011;37579;51.074;17.004;2024-03-02T05:17:48;9.90;;;7.53;;
39750;SDS011;37579;51.074;17.004;2024-03-02T05:20:13;10.00;;;7.65;;
39750;SDS011;37579;51.074;17.004;2024-03-02T05:22:39;10.07;;;7.80;;
39750;SDS011;37579;51.074;17.004;2024-03-02T05:25:06;8.75;;;7.20;;
39750;SDS011;37579;51.074;17.004;2024-03-02T05:27:32;8.23;;;6.93;;
39750;SDS011;37579;51.074;17.004;2024-03-02T05:29:58;9.98;;;7.57;;
39750;SDS011;37579;51.074;17.004;2024-03-02T05:32:25;10.10;;;7.88;;
39750;SDS011;37579;51.074;17.004;2024-03-02T05:34:50;8.68;;;7.10;;
39750;SDS011;37579;51.074;17.004;2024-03-02T05:37:17;9.77;;;7.78;;
39750;SDS011;37579;51.074;17.004;2024-03-02T05:39:42;9.95;;;7.47;;
39750;SDS011;37579;51.074;17.004;2024-03-02T05:42:09;9.15;;;7.22;;
39750;SDS011;37579;51.074;17.004;2024-03-02T05:44:38;9.80;;;7.78;;
39750;SDS011;37579;51.074;17.004;2024-03-02T05:47:04;8.48;;;7.22;;
39750;SDS011;37579;51.074;17.004;2024-03-02T05:49:30;10.95;;;7.40;;
39750;SDS011;37579;51.074;17.004;2024-03-02T05:51:56;9.02;;;8.07;;
39750;SDS011;37579;51.074;17.004;2024-03-02T05:54:21;9.30;;;7.53;;
39750;SDS011;37579;51.074;17.004;2024-03-02T05:56:47;10.07;;;8.00;;
39750;SDS011;37579;51.074;17.004;2024-03-02T05:59:13;9.15;;;7.28;;
39750;SDS011;37579;51.074;17.004;2024-03-02T06:01:39;9.00;;;7.22;;
39750;SDS011;37579;51.074;17.004;2024-03-02T06:04:06;8.80;;;7.15;;
39750;SDS011;37579;51.074;17.004;2024-03-02T06:06:32;9.48;;;7.68;;
39750;SDS011;37579;51.074;17.004;2024-03-02T06:09:01;8.30;;;7.22;;
39750;SDS011;37579;51.074;17.004;2024-03-02T06:11:30;9.98;;;7.32;;
39750;SDS011;37579;51.074;17.004;2024-03-02T06:13:56;8.90;;;7.30;;
39750;SDS011;37579;51.074;17.004;2024-03-02T06:16:22;8.82;;;7.22;;
39750;SDS011;37579;51.074;17.004;2024-03-02T06:18:48;9.55;;;7.82;;
39750;SDS011;37579;51.074;17.004;2024-03-02T06:21:13;8.82;;;7.38;;
39750;SDS011;37579;51.074;17.004;2024-03-02T06:23:39;9.95;;;7.57;;
39750;SDS011;37579;51.074;17.004;2024-03-02T06:26:05;8.00;;;7.20;;
39750;SDS011;37579;51.074;17.004;2024-03-02T06:28:31;10.45;;;7.85;;
39750;SDS011;37579;51.074;17.004;2024-03-02T06:30:56;10.18;;;7.40;;
39750;SDS011;37579;51.074;17.004;2024-03-02T06:33:22;8.25;;;6.82;;
39750;SDS011;37579;51.074;17.004;2024-03-02T06:35:48;8.10;;;7.30;;
39750;SDS011;37579;51.074;17.004;2024-03-02T06:38:14;8.82;;;7.53;;
39750;SDS011;37579;51.074;17.004;2024-03-02T06:40:40;8.82;;;7.22;;
39750;SDS011;37579;51.074;17.004;2024-03-02T06:43:05;10.02;;;8.10;;
39750;SDS011;37579;51.074;17.004;2024-03-02T06:45:31;8.73;;;7.32;;
39750;SDS011;37579;51.074;17.004;2024-03-02T06:47:59;8.73;;;7.72;;
39750;SDS011;37579;51.074;17.004;2024-03-02T06:50:25;9.82;;;6.93;;
39750;SDS011;37579;51.074;17.004;2024-03-02T06:52:52;9.70;;;7.28;;
39750;SDS011;37579;51.074;17.004;2024-03-02T06:55:18;9.50;;;7.65;;
39750;SDS011;37579;51.074;17.004;2024-03-02T06:57:43;9.52;;;7.88;;
39750;SDS011;37579;51.074;17.004;2024-03-02T07:00:09;9.82;;;7.50;;
39750;SDS011;37579;51.074;17.004;2024-03-02T07:02:35;9.15;;;7.25;;
39750;SDS011;37579;51.074;17.004;2024-03-02T07:05:02;9.73;;;7.40;;
39750;SDS011;37579;51.074;17.004;2024-03-02T07:07:28;9.88;;;7.47;;
39750;SDS011;37579;51.074;17.004;2024-03-02T07:09:54;9.05;;;6.88;;
39750;SDS011;37579;51.074;17.004;2024-03-02T07:12:20;8.50;;;6.75;;
39750;SDS011;37579;51.074;17.004;2024-03-02T07:14:46;9.73;;;7.57;;
39750;SDS011;37579;51.074;17.004;2024-03-02T07:17:20;9.60;;;7.07;;
39750;SDS011;37579;51.074;17.004;2024-03-02T07:19:46;9.05;;;7.00;;
39750;SDS011;37579;51.074;17.004;2024-03-02T07:22:12;9.50;;;7.70;;
39750;SDS011;37579;51.074;17.004;2024-03-02T07:24:42;8.82;;;7.20;;
39750;SDS011;37579;51.074;17.004;2024-03-02T07:27:08;8.75;;;7.03;;
39750;SDS011;37579;51.074;17.004;2024-03-02T07:29:35;8.20;;;6.95;;
39750;SDS011;37579;51.074;17.004;2024-03-02T07:32:01;8.93;;;7.30;;
39750;SDS011;37579;51.074;17.004;2024-03-02T07:34:27;8.63;;;7.53;;
39750;SDS011;37579;51.074;17.004;2024-03-02T07:36:52;9.15;;;7.60;;
39750;SDS011;37579;51.074;17.004;2024-03-02T07:39:19;7.97;;;6.85;;
39750;SDS011;37579;51.074;17.004;2024-03-02T07:41:45;13.10;;;6.70;;
39750;SDS011;37579;51.074;17.004;2024-03-02T07:44:11;8.68;;;7.13;;
39750;SDS011;37579;51.074;17.004;2024-03-02T07:46:43;9.60;;;7.22;;
39750;SDS011;37579;51.074;17.004;2024-03-02T07:49:09;8.85;;;7.07;;
39750;SDS011;37579;51.074;17.004;2024-03-02T07:51:35;9.13;;;7.15;;
39750;SDS011;37579;51.074;17.004;2024-03-02T07:54:04;10.15;;;7.63;;
39750;SDS011;37579;51.074;17.004;2024-03-02T07:56:30;8.15;;;7.05;;
39750;SDS011;37579;51.074;17.004;2024-03-02T07:58:56;8.88;;;6.57;;
39750;SDS011;37579;51.074;17.004;2024-03-02T08:01:26;10.32;;;7.68;;
39750;SDS011;37579;51.074;17.004;2024-03-02T08:04:00;10.25;;;7.35;;
39750;SDS011;37579;51.074;17.004;2024-03-02T08:06:26;10.00;;;7.25;;
39750;SDS011;37579;51.074;17.004;2024-03-02T08:08:56;9.98;;;7.57;;
39750;SDS011;37579;51.074;17.004;2024-03-02T08:11:25;10.27;;;7.13;;
39750;SDS011;37579;51.074;17.004;2024-03-02T08:13:56;9.85;;;6.85;;
39750;SDS011;37579;51.074;17.004;2024-03-02T08:16:22;11.27;;;7.75;;
39750;SDS011;37579;51.074;17.004;2024-03-02T08:18:51;8.90;;;7.28;;
39750;SDS011;37579;51.074;17.004;2024-03-02T08:21:17;10.02;;;7.47;;
39750;SDS011;37579;51.074;17.004;2024-03-02T08:23:44;8.88;;;7.15;;
39750;SDS011;37579;51.074;17.004;2024-03-02T08:26:09;14.00;;;7.05;;
39750;SDS011;37579;51.074;17.004;2024-03-02T08:28:35;9.90;;;7.25;;
39750;SDS011;37579;51.074;17.004;2024-03-02T08:31:02;10.80;;;7.95;;
39750;SDS011;37579;51.074;17.004;2024-03-02T08:33:29;7.78;;;6.65;;
39750;SDS011;37579;51.074;17.004;2024-03-02T08:35:55;9.00;;;7.35;;
39750;SDS011;37579;51.074;17.004;2024-03-02T08:38:21;9.32;;;6.97;;
39750;SDS011;37579;51.074;17.004;2024-03-02T08:40:47;11.95;;;8.18;;
39750;SDS011;37579;51.074;17.004;2024-03-02T08:43:14;9.30;;;7.20;;
39750;SDS011;37579;51.074;17.004;2024-03-02T08:45:40;13.15;;;8.00;;
39750;SDS011;37579;51.074;17.004;2024-03-02T08:48:09;9.75;;;7.15;;
39750;SDS011;37579;51.074;17.004;2024-03-02T08:50:36;9.63;;;7.53;;
39750;SDS011;37579;51.074;17.004;2024-03-02T08:53:03;12.25;;;7.65;;
39750;SDS011;37579;51.074;17.004;2024-03-02T08:55:29;11.02;;;7.53;;
39750;SDS011;37579;51.074;17.004;2024-03-02T08:57:55;8.40;;;7.10;;
39750;SDS011;37579;51.074;17.004;2024-03-02T09:00:21;9.35;;;7.32;;
39750;SDS011;37579;51.074;17.004;2024-03-02T09:02:47;9.52;;;8.05;;
39750;SDS011;37579;51.074;17.004;2024-03-02T09:05:13;9.80;;;7.85;;
39750;SDS011;37579;51.074;17.004;2024-03-02T09:07:39;10.23;;;7.25;;
39750;SDS011;37579;51.074;17.004;2024-03-02T09:10:05;10.52;;;6.75;;
39750;SDS011;37579;51.074;17.004;2024-03-02T09:12:32;10.65;;;7.15;;
39750;SDS011;37579;51.074;17.004;2024-03-02T09:14:58;10.20;;;7.65;;
39750;SDS011;37579;51.074;17.004;2024-03-02T09:17:31;13.05;;;7.40;;
39750;SDS011;37579;51.074;17.004;2024-03-02T09:19:57;15.23;;;7.50;;
39750;SDS011;37579;51.074;17.004;2024-03-02T09:22:22;10.90;;;7.88;;
39750;SDS011;37579;51.074;17.004;2024-03-02T09:24:48;9.15;;;6.90;;
39750;SDS011;37579;51.074;17.004;2024-03-02T09:27:14;12.23;;;7.78;;
39750;SDS011;37579;51.074;17.004;2024-03-02T09:29:40;10.88;;;7.85;;
39750;SDS011;37579;51.074;17.004;2024-03-02T09:32:06;12.65;;;7.63;;
39750;SDS011;37579;51.074;17.004;2024-03-02T09:34:33;12.10;;;7.53;;
39750;SDS011;37579;51.074;17.004;2024-03-02T09:36:59;10.32;;;7.78;;
39750;SDS011;37579;51.074;17.004;2024-03-02T09:39:25;10.70;;;7.28;;
39750;SDS011;37579;51.074;17.004;2024-03-02T09:41:51;10.60;;;7.20;;
39750;SDS011;37579;51.074;17.004;2024-03-02T09:44:17;10.18;;;7.07;;
39750;SDS011;37579;51.074;17.004;2024-03-02T09:46:48;11.75;;;7.43;;
39750;SDS011;37579;51.074;17.004;2024-03-02T09:49:14;10.43;;;7.07;;
39750;SDS011;37579;51.074;17.004;2024-03-02T09:51:40;11.43;;;7.68;;
39750;SDS011;37579;51.074;17.004;2024-03-02T09:54:11;10.52;;;7.78;;
39750;SDS011;37579;51.074;17.004;2024-03-02T09:56:37;13.73;;;7.82;;
39750;SDS011;37579;51.074;17.004;2024-03-02T09:59:03;8.93;;;6.85;;
39750;SDS011;37579;51.074;17.004;2024-03-02T10:01:30;13.13;;;8.00;;
39750;SDS011;37579;51.074;17.004;2024-03-02T10:03:58;13.77;;;7.68;;
39750;SDS011;37579;51.074;17.004;2024-03-02T10:06:28;15.02;;;9.07;;
39750;SDS011;37579;51.074;17.004;2024-03-02T10:08:54;13.57;;;7.93;;
39750;SDS011;37579;51.074;17.004;2024-03-02T10:11:34;12.80;;;7.15;;
39750;SDS011;37579;51.074;17.004;2024-03-02T10:16:40;10.85;;;7.43;;
39750;SDS011;37579;51.074;17.004;2024-03-02T10:19:24;14.95;;;7.32;;
39750;SDS011;37579;51.074;17.004;2024-03-02T10:21:52;11.55;;;7.47;;
39750;SDS011;37579;51.074;17.004;2024-03-02T10:24:19;14.65;;;7.95;;
39750;SDS011;37579;51.074;17.004;2024-03-02T10:26:46;13.07;;;7.70;;
39750;SDS011;37579;51.074;17.004;2024-03-02T10:29:12;13.82;;;8.63;;
39750;SDS011;37579;51.074;17.004;2024-03-02T10:31:39;11.85;;;8.18;;
39750;SDS011;37579;51.074;17.004;2024-03-02T10:34:06;12.38;;;8.50;;
39750;SDS011;37579;51.074;17.004;2024-03-02T10:36:33;10.30;;;7.47;;
39750;SDS011;37579;51.074;17.004;2024-03-02T10:39:01;11.95;;;8.70;;
39750;SDS011;37579;51.074;17.004;2024-03-02T10:41:32;10.20;;;7.60;;
39750;SDS011;37579;51.074;17.004;2024-03-02T10:43:59;11.32;;;8.13;;
39750;SDS011;37579;51.074;17.004;2024-03-02T10:46:31;11.27;;;7.13;;
39750;SDS011;37579;51.074;17.004;2024-03-02T10:49:01;12.68;;;7.20;;
39750;SDS011;37579;51.074;17.004;2024-03-02T10:51:29;14.18;;;7.72;;
39750;SDS011;37579;51.074;17.004;2024-03-02T10:53:57;9.52;;;6.70;;
39750;SDS011;37579;51.074;17.004;2024-03-02T10:59:17;24.48;;;18.88;;
39750;SDS011;37579;51.074;17.004;2024-03-02T11:01:47;25.27;;;17.95;;
39750;SDS011;37579;51.074;17.004;2024-03-02T11:04:17;24.42;;;18.38;;
39750;SDS011;37579;51.074;17.004;2024-03-02T11:06:49;23.95;;;17.60;;
39750;SDS011;37579;51.074;17.004;2024-03-02T11:09:16;24.20;;;18.08;;
39750;SDS011;37579;51.074;17.004;2024-03-02T11:11:45;23.20;;;15.70;;
39750;SDS011;37579;51.074;17.004;2024-03-02T11:14:21;21.00;;;13.43;;
39750;SDS011;37579;51.074;17.004;2024-03-02T11:16:50;20.02;;;13.75;;
39750;SDS011;37579;51.074;17.004;2024-03-02T11:19:17;19.08;;;13.00;;
39750;SDS011;37579;51.074;17.004;2024-03-02T11:21:43;17.17;;;11.88;;
39750;SDS011;37579;51.074;17.004;2024-03-02T11:26:53;12.98;;;10.45;;
39750;SDS011;37579;51.074;17.004;2024-03-02T11:34:42;15.05;;;10.20;;
39750;SDS011;37579;51.074;17.004;2024-03-02T11:37:18;13.73;;;10.65;;
39750;SDS011;37579;51.074;17.004;2024-03-02T11:39:50;17.58;;;11.18;;
39750;SDS011;37579;51.074;17.004;2024-03-02T11:42:17;15.98;;;10.63;;
39750;SDS011;37579;51.074;17.004;2024-03-02T11:44:44;15.40;;;9.65;;
39750;SDS011;37579;51.074;17.004;2024-03-02T11:47:12;14.13;;;10.07;;
39750;SDS011;37579;51.074;17.004;2024-03-02T11:49:40;14.10;;;10.43;;
39750;SDS011;37579;51.074;17.004;2024-03-02T11:52:11;12.80;;;10.07;;
39750;SDS011;37579;51.074;17.004;2024-03-02T11:54:38;14.52;;;9.80;;
39750;SDS011;37579;51.074;17.004;2024-03-02T11:57:08;17.25;;;10.38;;
39750;SDS011;37579;51.074;17.004;2024-03-02T11:59:34;14.55;;;9.65;;
39750;SDS011;37579;51.074;17.004;2024-03-02T12:02:00;14.30;;;10.30;;
39750;SDS011;37579;51.074;17.004;2024-03-02T12:04:27;15.50;;;10.88;;
39750;SDS011;37579;51.074;17.004;2024-03-02T12:06:55;13.77;;;9.88;;
39750;SDS011;37579;51.074;17.004;2024-03-02T12:09:22;15.80;;;10.00;;
39750;SDS011;37579;51.074;17.004;2024-03-02T12:11:48;14.05;;;10.32;;
39750;SDS011;37579;51.074;17.004;2024-03-02T12:14:25;14.15;;;8.68;;
39750;SDS011;37579;51.074;17.004;2024-03-02T12:16:54;12.65;;;9.30;;
39750;SDS011;37579;51.074;17.004;2024-03-02T12:19:20;13.48;;;9.07;;
39750;SDS011;37579;51.074;17.004;2024-03-02T12:21:46;14.20;;;9.23;;
39750;SDS011;37579;51.074;17.004;2024-03-02T12:24:12;12.98;;;8.90;;
39750;SDS011;37579;51.074;17.004;2024-03-02T12:26:38;11.68;;;9.02;;
39750;SDS011;37579;51.074;17.004;2024-03-02T12:29:04;15.73;;;9.32;;
39750;SDS011;37579;51.074;17.004;2024-03-02T12:31:30;13.95;;;8.75;;
39750;SDS011;37579;51.074;17.004;2024-03-02T12:33:57;15.00;;;9.45;;
39750;SDS011;37579;51.074;17.004;2024-03-02T12:36:24;13.02;;;9.05;;
39750;SDS011;37579;51.074;17.004;2024-03-02T12:38:52;13.30;;;9.40;;
39750;SDS011;37579;51.074;17.004;2024-03-02T12:41:18;13.82;;;9.25;;
39750;SDS011;37579;51.074;17.004;2024-03-02T12:43:44;16.33;;;9.10;;
39750;SDS011;37579;51.074;17.004;2024-03-02T12:46:10;15.82;;;9.20;;
39750;SDS011;37579;51.074;17.004;2024-03-02T12:48:36;15.07;;;9.15;;
39750;SDS011;37579;51.074;17.004;2024-03-02T12:51:04;13.65;;;8.57;;
39750;SDS011;37579;51.074;17.004;2024-03-02T12:53:30;13.55;;;8.63;;
39750;SDS011;37579;51.074;17.004;2024-03-02T12:55:56;13.75;;;8.68;;
39750;SDS011;37579;51.074;17.004;2024-03-02T12:58:22;11.55;;;8.07;;
39750;SDS011;37579;51.074;17.004;2024-03-02T13:00:48;14.82;;;8.95;;
39750;SDS011;37579;51.074;17.004;2024-03-02T13:03:14;13.82;;;7.95;;
39750;SDS011;37579;51.074;17.004;2024-03-02T13:05:47;11.70;;;8.75;;
39750;SDS011;37579;51.074;17.004;2024-03-02T13:08:14;14.10;;;8.55;;
39750;SDS011;37579;51.074;17.004;2024-03-02T13:10:41;13.30;;;8.75;;
39750;SDS011;37579;51.074;17.004;2024-03-02T13:13:07;12.80;;;8.30;;
39750;SDS011;37579;51.074;17.004;2024-03-02T13:15:33;12.25;;;8.43;;
39750;SDS011;37579;51.074;17.004;2024-03-02T13:18:00;10.60;;;8.02;;
39750;SDS011;37579;51.074;17.004;2024-03-02T13:20:30;11.35;;;7.68;;
39750;SDS011;37579;51.074;17.004;2024-03-02T13:22:59;12.45;;;8.15;;
39750;SDS011;37579;51.074;17.004;2024-03-02T13:25:25;11.05;;;8.07;;
39750;SDS011;37579;51.074;17.004;2024-03-02T13:27:51;13.35;;;8.90;;
39750;SDS011;37579;51.074;17.004;2024-03-02T13:30:17;11.00;;;7.88;;
39750;SDS011;37579;51.074;17.004;2024-03-02T13:32:43;11.80;;;8.27;;
39750;SDS011;37579;51.074;17.004;2024-03-02T13:35:10;11.82;;;7.63;;
39750;SDS011;37579;51.074;17.004;2024-03-02T13:37:38;11.55;;;8.00;;
39750;SDS011;37579;51.074;17.004;2024-03-02T13:40:04;11.27;;;8.02;;
39750;SDS011;37579;51.074;17.004;2024-03-02T13:42:30;11.70;;;6.93;;
39750;SDS011;37579;51.074;17.004;2024-03-02T13:44:56;17.88;;;14.00;;
39750;SDS011;37579;51.074;17.004;2024-03-02T13:47:22;17.10;;;13.57;;
39750;SDS011;37579;51.074;17.004;2024-03-02T13:49:48;17.67;;;13.82;;
39750;SDS011;37579;51.074;17.004;2024-03-02T13:52:14;19.25;;;14.27;;
39750;SDS011;37579;51.074;17.004;2024-03-02T13:54:42;15.30;;;11.63;;
39750;SDS011;37579;51.074;17.004;2024-03-02T13:57:09;16.60;;;12.00;;
39750;SDS011;37579;51.074;17.004;2024-03-02T13:59:37;16.83;;;11.18;;
39750;SDS011;37579;51.074;17.004;2024-03-02T14:02:06;13.32;;;9.57;;
39750;SDS011;37579;51.074;17.004;2024-03-02T14:04:34;13.93;;;9.55;;
39750;SDS011;37579;51.074;17.004;2024-03-02T14:07:00;14.18;;;9.27;;
39750;SDS011;37579;51.074;17.004;2024-03-02T14:09:26;13.80;;;9.27;;
39750;SDS011;37579;51.074;17.004;2024-03-02T14:11:53;13.23;;;9.00;;
39750;SDS011;37579;51.074;17.004;2024-03-02T14:14:19;11.60;;;8.13;;
39750;SDS011;37579;51.074;17.004;2024-03-02T14:16:45;12.68;;;9.02;;
39750;SDS011;37579;51.074;17.004;2024-03-02T14:19:11;11.25;;;8.27;;
39750;SDS011;37579;51.074;17.004;2024-03-02T14:21:40;11.43;;;8.63;;
39750;SDS011;37579;51.074;17.004;2024-03-02T14:24:06;12.77;;;8.77;;
39750;SDS011;37579;51.074;17.004;2024-03-02T14:26:32;10.02;;;7.90;;
39750;SDS011;37579;51.074;17.004;2024-03-02T14:28:58;12.73;;;8.63;;
39750;SDS011;37579;51.074;17.004;2024-03-02T14:31:27;9.48;;;7.57;;
39750;SDS011;37579;51.074;17.004;2024-03-02T14:33:53;13.13;;;8.48;;
39750;SDS011;37579;51.074;17.004;2024-03-02T14:36:19;9.02;;;8.02;;
39750;SDS011;37579;51.074;17.004;2024-03-02T14:38:45;11.35;;;7.68;;
39750;SDS011;37579;51.074;17.004;2024-03-02T14:41:11;10.18;;;7.95;;